sensor_id;sensor_type;location;lat;lon;timestamp;pressure;altitude;pressure_sealevel;temperature;humidity
38225;BME280;24025;48.138;11.428;2023-12-20T00:02:03;95512.88;;;6.30;52.43
38225;BME280;24025;48.138;11.428;2023-12-20T00:04:35;95501.94;;;6.31;52.51
38225;BME280;24025;48.138;11.428;2023-12-20T00:07:07;95498.09;;;6.29;52.64
38225;BME280;24025;48.138;11.428;2023-12-20T00:09:39;95485.72;;;6.33;52.43
38225;BME280;24025;48.138;11.428;2023-12-20T00:12:11;95489.91;;;6.34;52.52
38225;BME280;24025;48.138;11.428;2023-12-20T00:14:42;95484.59;;;6.34;52.51
38225;BME280;24025;48.138;11.428;2023-12-20T00:17:14;95476.78;;;6.37;52.15
38225;BME280;24025;48.138;11.428;2023-12-20T00:19:46;95474.13;;;6.37;51.91
38225;BME280;24025;48.138;11.428;2023-12-20T00:22:17;95477.34;;;6.31;52.17
38225;BME280;24025;48.138;11.428;2023-12-20T00:24:49;95481.31;;;6.24;51.95
38225;BME280;24025;48.138;11.428;2023-12-20T00:27:21;95476.16;;;6.28;52.16
38225;BME280;24025;48.138;11.428;2023-12-20T00:29:52;95477.44;;;6.34;51.91
38225;BME280;24025;48.138;11.428;2023-12-20T00:32:24;95467.09;;;6.29;51.52
38225;BME280;24025;48.138;11.428;2023-12-20T00:34:56;95461.78;;;6.29;50.91
38225;BME280;24025;48.138;11.428;2023-12-20T00:37:27;95469.41;;;6.31;51.11
38225;BME280;24025;48.138;11.428;2023-12-20T00:39:59;95471.38;;;6.34;50.98
38225;BME280;24025;48.138;11.428;2023-12-20T00:42:31;95463.41;;;6.34;50.58
38225;BME280;24025;48.138;11.428;2023-12-20T00:45:03;95466.75;;;6.31;50.56
38225;BME280;24025;48.138;11.428;2023-12-20T00:47:36;95449.84;;;6.35;50.75
38225;BME280;24025;48.138;11.428;2023-12-20T00:50:08;95446.75;;;6.33;50.68
38225;BME280;24025;48.138;11.428;2023-12-20T00:52:40;95447.31;;;6.39;50.43
38225;BME280;24025;48.138;11.428;2023-12-20T00:55:12;95435.59;;;6.40;50.58
38225;BME280;24025;48.138;11.428;2023-12-20T00:57:43;95445.63;;;6.46;50.41
38225;BME280;24025;48.138;11.428;2023-12-20T01:00:15;95443.06;;;6.50;50.54
38225;BME280;24025;48.138;11.428;2023-12-20T01:02:47;95438.09;;;6.48;50.09
38225;BME280;24025;48.138;11.428;2023-12-20T01:05:21;95428.28;;;6.49;50.02
38225;BME280;24025;48.138;11.428;2023-12-20T01:07:55;95424.72;;;6.57;50.24
38225;BME280;24025;48.138;11.428;2023-12-20T01:10:27;95431.00;;;6.52;50.44
38225;BME280;24025;48.138;11.428;2023-12-20T01:13:00;95420.75;;;6.51;50.64
38225;BME280;24025;48.138;11.428;2023-12-20T01:15:31;95433.66;;;6.52;50.80
38225;BME280;24025;48.138;11.428;2023-12-20T01:18:03;95424.44;;;6.62;50.50
38225;BME280;24025;48.138;11.428;2023-12-20T01:20:35;95422.50;;;6.59;50.76
38225;BME280;24025;48.138;11.428;2023-12-20T01:23:07;95416.50;;;6.62;51.06
38225;BME280;24025;48.138;11.428;2023-12-20T01:25:39;95422.59;;;6.63;51.32
38225;BME280;24025;48.138;11.428;2023-12-20T01:28:11;95407.28;;;6.56;51.12
38225;BME280;24025;48.138;11.428;2023-12-20T01:30:43;95405.22;;;6.49;51.71
38225;BME280;24025;48.138;11.428;2023-12-20T01:33:15;95402.47;;;6.46;52.06
38225;BME280;24025;48.138;11.428;2023-12-20T01:35:46;95407.31;;;6.44;52.28
38225;BME280;24025;48.138;11.428;2023-12-20T01:38:18;95416.16;;;6.48;52.14
38225;BME280;24025;48.138;11.428;2023-12-20T01:40:50;95413.50;;;6.48;52.26
38225;BME280;24025;48.138;11.428;2023-12-20T01:43:21;95396.16;;;6.50;52.20
38225;BME280;24025;48.138;11.428;2023-12-20T01:45:57;95389.25;;;6.46;52.05
38225;BME280;24025;48.138;11.428;2023-12-20T01:48:30;95386.31;;;6.51;52.08
38225;BME280;24025;48.138;11.428;2023-12-20T01:51:03;95374.97;;;6.50;52.04
38225;BME280;24025;48.138;11.428;2023-12-20T01:53:36;95377.03;;;6.57;52.42
38225;BME280;24025;48.138;11.428;2023-12-20T01:56:08;95376.59;;;6.55;52.10
38225;BME280;24025;48.138;11.428;2023-12-20T01:58:44;95368.66;;;6.55;52.30
38225;BME280;24025;48.138;11.428;2023-12-20T02:01:18;95357.38;;;6.58;52.04
38225;BME280;24025;48.138;11.428;2023-12-20T02:03:50;95350.28;;;6.62;52.11
38225;BME280;24025;48.138;11.428;2023-12-20T02:06:28;95342.78;;;6.64;51.99
38225;BME280;24025;48.138;11.428;2023-12-20T02:09:01;95340.63;;;6.70;51.82
38225;BME280;24025;48.138;11.428;2023-12-20T02:11:33;95342.63;;;6.73;51.83
38225;BME280;24025;48.138;11.428;2023-12-20T02:14:06;95339.88;;;6.69;52.10
38225;BME280;24025;48.138;11.428;2023-12-20T02:16:38;95342.84;;;6.68;52.05
38225;BME280;24025;48.138;11.428;2023-12-20T02:19:14;95340.28;;;6.71;52.11
38225;BME280;24025;48.138;11.428;2023-12-20T02:21:46;95346.38;;;6.72;52.95
38225;BME280;24025;48.138;11.428;2023-12-20T02:24:18;95338.09;;;6.73;53.27
38225;BME280;24025;48.138;11.428;2023-12-20T02:26:50;95338.94;;;6.77;53.59
38225;BME280;24025;48.138;11.428;2023-12-20T02:29:21;95337.81;;;6.78;54.00
38225;BME280;24025;48.138;11.428;2023-12-20T02:31:53;95337.81;;;6.78;54.42
38225;BME280;24025;48.138;11.428;2023-12-20T02:34:25;95334.56;;;6.85;54.44
38225;BME280;24025;48.138;11.428;2023-12-20T02:36:56;95309.19;;;6.84;54.83
38225;BME280;24025;48.138;11.428;2023-12-20T02:39:28;95312.09;;;6.79;55.29
38225;BME280;24025;48.138;11.428;2023-12-20T02:42:00;95320.97;;;6.87;55.10
38225;BME280;24025;48.138;11.428;2023-12-20T02:44:31;95306.28;;;6.89;55.41
38225;BME280;24025;48.138;11.428;2023-12-20T02:47:03;95307.13;;;6.93;55.16
38225;BME280;24025;48.138;11.428;2023-12-20T02:49:35;95312.34;;;6.90;55.71
38225;BME280;24025;48.138;11.428;2023-12-20T02:52:07;95317.91;;;6.85;55.86
38225;BME280;24025;48.138;11.428;2023-12-20T02:54:38;95319.53;;;6.89;55.76
38225;BME280;24025;48.138;11.428;2023-12-20T02:57:10;95313.13;;;6.90;55.79
38225;BME280;24025;48.138;11.428;2023-12-20T02:59:41;95319.97;;;6.91;56.19
38225;BME280;24025;48.138;11.428;2023-12-20T03:02:13;95320.63;;;6.88;56.82
38225;BME280;24025;48.138;11.428;2023-12-20T03:04:45;95329.03;;;6.90;57.20
38225;BME280;24025;48.138;11.428;2023-12-20T03:07:16;95329.44;;;6.92;57.43
38225;BME280;24025;48.138;11.428;2023-12-20T03:09:48;95319.53;;;6.89;57.93
38225;BME280;24025;48.138;11.428;2023-12-20T03:12:40;95319.59;;;6.93;58.08
38225;BME280;24025;48.138;11.428;2023-12-20T03:15:12;95326.09;;;6.95;58.35
38225;BME280;24025;48.138;11.428;2023-12-20T03:17:44;95328.75;;;6.95;58.47
38225;BME280;24025;48.138;11.428;2023-12-20T03:20:16;95323.78;;;6.94;58.71
38225;BME280;24025;48.138;11.428;2023-12-20T03:22:47;95334.75;;;6.92;59.56
38225;BME280;24025;48.138;11.428;2023-12-20T03:25:19;95329.44;;;6.92;59.76
38225;BME280;24025;48.138;11.428;2023-12-20T03:27:51;95335.44;;;6.89;60.13
38225;BME280;24025;48.138;11.428;2023-12-20T03:30:22;95342.34;;;6.94;60.42
38225;BME280;24025;48.138;11.428;2023-12-20T03:32:54;95347.56;;;6.90;61.23
38225;BME280;24025;48.138;11.428;2023-12-20T03:35:25;95355.44;;;6.87;61.35
38225;BME280;24025;48.138;11.428;2023-12-20T03:37:57;95354.94;;;6.81;62.12
38225;BME280;24025;48.138;11.428;2023-12-20T03:40:31;95366.19;;;6.78;62.58
38225;BME280;24025;48.138;11.428;2023-12-20T03:43:03;95373.38;;;6.77;62.93
38225;BME280;24025;48.138;11.428;2023-12-20T03:45:34;95369.53;;;6.75;63.07
38225;BME280;24025;48.138;11.428;2023-12-20T03:48:06;95382.88;;;6.63;64.36
38225;BME280;24025;48.138;11.428;2023-12-20T03:50:38;95375.22;;;6.61;64.82
38225;BME280;24025;48.138;11.428;2023-12-20T03:53:10;95377.88;;;6.61;65.86
38225;BME280;24025;48.138;11.428;2023-12-20T03:55:41;95378.56;;;6.58;66.61
38225;BME280;24025;48.138;11.428;2023-12-20T03:58:13;95376.94;;;6.53;67.30
38225;BME280;24025;48.138;11.428;2023-12-20T04:00:45;95375.22;;;6.45;69.09
38225;BME280;24025;48.138;11.428;2023-12-20T04:03:16;95372.03;;;6.40;69.61
38225;BME280;24025;48.138;11.428;2023-12-20T04:05:48;95369.81;;;6.42;70.02
38225;BME280;24025;48.138;11.428;2023-12-20T04:08:20;95365.38;;;6.30;71.52
38225;BME280;24025;48.138;11.428;2023-12-20T04:10:51;95375.97;;;6.18;72.89
38225;BME280;24025;48.138;11.428;2023-12-20T04:13:25;95372.56;;;6.17;73.65
38225;BME280;24025;48.138;11.428;2023-12-20T04:15:57;95380.19;;;6.19;74.05
38225;BME280;24025;48.138;11.428;2023-12-20T04:18:28;95368.31;;;6.13;75.83
38225;BME280;24025;48.138;11.428;2023-12-20T04:21:00;95367.09;;;6.10;75.89
38225;BME280;24025;48.138;11.428;2023-12-20T04:23:32;95364.53;;;6.14;75.99
38225;BME280;24025;48.138;11.428;2023-12-20T04:26:03;95371.19;;;6.08;76.30
38225;BME280;24025;48.138;11.428;2023-12-20T04:28:35;95360.66;;;5.95;77.33
38225;BME280;24025;48.138;11.428;2023-12-20T04:31:06;95368.78;;;6.03;77.35
38225;BME280;24025;48.138;11.428;2023-12-20T04:33:38;95375.19;;;6.02;77.57
38225;BME280;24025;48.138;11.428;2023-12-20T04:36:10;95369.13;;;6.01;78.32
38225;BME280;24025;48.138;11.428;2023-12-20T04:38:42;95379.09;;;5.92;78.64
38225;BME280;24025;48.138;11.428;2023-12-20T04:41:13;95380.94;;;5.91;79.07
38225;BME280;24025;48.138;11.428;2023-12-20T04:43:47;95383.69;;;5.95;79.40
38225;BME280;24025;48.138;11.428;2023-12-20T04:46:19;95394.97;;;5.92;79.98
38225;BME280;24025;48.138;11.428;2023-12-20T04:48:50;95395.56;;;5.89;80.47
38225;BME280;24025;48.138;11.428;2023-12-20T04:51:22;95416.13;;;5.92;81.06
38225;BME280;24025;48.138;11.428;2023-12-20T04:53:54;95407.81;;;5.81;83.56
38225;BME280;24025;48.138;11.428;2023-12-20T04:56:25;95411.25;;;5.82;84.02
38225;BME280;24025;48.138;11.428;2023-12-20T04:58:57;95405.91;;;5.66;86.19
38225;BME280;24025;48.138;11.428;2023-12-20T05:01:28;95412.06;;;5.58;87.93
38225;BME280;24025;48.138;11.428;2023-12-20T05:04:00;95420.00;;;5.58;89.64
38225;BME280;24025;48.138;11.428;2023-12-20T05:06:31;95425.16;;;5.54;89.74
38225;BME280;24025;48.138;11.428;2023-12-20T05:09:03;95418.78;;;5.43;91.98
38225;BME280;24025;48.138;11.428;2023-12-20T05:11:35;95406.00;;;5.45;91.87
38225;BME280;24025;48.138;11.428;2023-12-20T05:14:06;95428.50;;;5.51;92.21
38225;BME280;24025;48.138;11.428;2023-12-20T05:16:38;95433.22;;;5.58;91.20
38225;BME280;24025;48.138;11.428;2023-12-20T05:19:10;95425.38;;;5.61;91.21
38225;BME280;24025;48.138;11.428;2023-12-20T05:21:42;95432.34;;;5.54;92.69
38225;BME280;24025;48.138;11.428;2023-12-20T05:24:13;95435.00;;;5.42;94.43
38225;BME280;24025;48.138;11.428;2023-12-20T05:26:45;95442.38;;;5.48;94.29
38225;BME280;24025;48.138;11.428;2023-12-20T05:29:16;95436.75;;;5.37;94.92
38225;BME280;24025;48.138;11.428;2023-12-20T05:31:48;95445.44;;;5.38;95.24
38225;BME280;24025;48.138;11.428;2023-12-20T05:34:19;95447.22;;;5.34;95.29
38225;BME280;24025;48.138;11.428;2023-12-20T05:36:52;95449.19;;;5.25;96.47
38225;BME280;24025;48.138;11.428;2023-12-20T05:39:23;95441.38;;;5.16;95.93
38225;BME280;24025;48.138;11.428;2023-12-20T05:41:55;95462.19;;;5.18;95.83
38225;BME280;24025;48.138;11.428;2023-12-20T05:44:26;95457.97;;;5.04;95.87
38225;BME280;24025;48.138;11.428;2023-12-20T05:46:58;95469.84;;;4.98;97.08
38225;BME280;24025;48.138;11.428;2023-12-20T05:49:29;95470.09;;;5.05;95.96
38225;BME280;24025;48.138;11.428;2023-12-20T05:52:01;95473.16;;;4.95;96.28
38225;BME280;24025;48.138;11.428;2023-12-20T05:54:33;95477.97;;;4.93;95.64
38225;BME280;24025;48.138;11.428;2023-12-20T05:57:05;95480.69;;;4.84;96.46
38225;BME280;24025;48.138;11.428;2023-12-20T05:59:37;95489.19;;;4.78;97.07
38225;BME280;24025;48.138;11.428;2023-12-20T06:02:08;95493.22;;;4.75;97.73
38225;BME280;24025;48.138;11.428;2023-12-20T06:04:42;95500.59;;;4.70;97.50
38225;BME280;24025;48.138;11.428;2023-12-20T06:07:15;95494.84;;;4.68;97.28
38225;BME280;24025;48.138;11.428;2023-12-20T06:09:47;95495.66;;;4.68;98.24
38225;BME280;24025;48.138;11.428;2023-12-20T06:12:18;95496.72;;;4.67;98.74
38225;BME280;24025;48.138;11.428;2023-12-20T06:14:50;95501.22;;;4.67;99.31
38225;BME280;24025;48.138;11.428;2023-12-20T06:17:21;95502.75;;;4.68;98.79
38225;BME280;24025;48.138;11.428;2023-12-20T06:19:53;95497.81;;;4.66;98.68
38225;BME280;24025;48.138;11.428;2023-12-20T06:22:25;95499.25;;;4.64;98.65
38225;BME280;24025;48.138;11.428;2023-12-20T06:24:57;95509.38;;;4.62;98.92
38225;BME280;24025;48.138;11.428;2023-12-20T06:27:29;95508.59;;;4.61;99.25
38225;BME280;24025;48.138;11.428;2023-12-20T06:30:00;95515.28;;;4.59;98.94
38225;BME280;24025;48.138;11.428;2023-12-20T06:32:32;95529.72;;;4.61;99.52
38225;BME280;24025;48.138;11.428;2023-12-20T06:35:06;95526.22;;;4.48;99.31
38225;BME280;24025;48.138;11.428;2023-12-20T06:37:37;95525.00;;;4.46;100.00
38225;BME280;24025;48.138;11.428;2023-12-20T06:40:13;95544.28;;;4.46;100.00
38225;BME280;24025;48.138;11.428;2023-12-20T06:42:49;95539.63;;;4.43;99.51
38225;BME280;24025;48.138;11.428;2023-12-20T06:45:35;95527.66;;;4.46;100.00
38225;BME280;24025;48.138;11.428;2023-12-20T06:48:07;95538.41;;;4.41;100.00
38225;BME280;24025;48.138;11.428;2023-12-20T06:50:39;95539.81;;;4.38;100.00
38225;BME280;24025;48.138;11.428;2023-12-20T06:53:11;95534.09;;;4.36;100.00
38225;BME280;24025;48.138;11.428;2023-12-20T06:55:44;95536.59;;;4.33;100.00
38225;BME280;24025;48.138;11.428;2023-12-20T06:58:15;95536.59;;;4.33;100.00
38225;BME280;24025;48.138;11.428;2023-12-20T07:00:48;95534.75;;;4.33;100.00
38225;BME280;24025;48.138;11.428;2023-12-20T07:03:20;95544.97;;;4.35;100.00
38225;BME280;24025;48.138;11.428;2023-12-20T07:05:51;95553.16;;;4.42;99.46
38225;BME280;24025;48.138;11.428;2023-12-20T07:08:23;95557.47;;;4.25;98.90
38225;BME280;24025;48.138;11.428;2023-12-20T07:10:55;95567.81;;;4.31;99.06
38225;BME280;24025;48.138;11.428;2023-12-20T07:13:29;95581.00;;;4.31;99.87
38225;BME280;24025;48.138;11.428;2023-12-20T07:16:01;95570.19;;;4.23;99.58
38225;BME280;24025;48.138;11.428;2023-12-20T07:18:33;95579.84;;;4.19;99.70
38225;BME280;24025;48.138;11.428;2023-12-20T07:21:04;95578.56;;;4.25;99.83
38225;BME280;24025;48.138;11.428;2023-12-20T07:23:36;95575.00;;;4.21;100.00
38225;BME280;24025;48.138;11.428;2023-12-20T07:26:08;95583.53;;;4.27;100.00
38225;BME280;24025;48.138;11.428;2023-12-20T07:28:40;95587.06;;;4.31;100.00
38225;BME280;24025;48.138;11.428;2023-12-20T07:31:12;95588.03;;;4.26;100.00
38225;BME280;24025;48.138;11.428;2023-12-20T07:33:44;95591.78;;;4.25;100.00
38225;BME280;24025;48.138;11.428;2023-12-20T07:36:16;95594.66;;;4.33;100.00
38225;BME280;24025;48.138;11.428;2023-12-20T07:38:47;95594.66;;;4.33;99.04
38225;BME280;24025;48.138;11.428;2023-12-20T07:41:19;95599.00;;;4.37;98.55
38225;BME280;24025;48.138;11.428;2023-12-20T07:43:52;95605.25;;;4.24;99.04
38225;BME280;24025;48.138;11.428;2023-12-20T07:46:24;95598.16;;;4.24;100.00
38225;BME280;24025;48.138;11.428;2023-12-20T07:48:56;95598.28;;;4.28;99.12
38225;BME280;24025;48.138;11.428;2023-12-20T07:51:28;95604.78;;;4.31;99.06
38225;BME280;24025;48.138;11.428;2023-12-20T07:54:00;95599.63;;;4.34;98.64
38225;BME280;24025;48.138;11.428;2023-12-20T07:56:31;95600.91;;;4.28;98.82
38225;BME280;24025;48.138;11.428;2023-12-20T07:59:03;95595.91;;;4.35;98.07
38225;BME280;24025;48.138;11.428;2023-12-20T08:01:36;95600.59;;;4.30;98.57
38225;BME280;24025;48.138;11.428;2023-12-20T08:04:08;95612.56;;;4.27;98.88
38225;BME280;24025;48.138;11.428;2023-12-20T08:06:40;95621.91;;;4.24;99.19
38225;BME280;24025;48.138;11.428;2023-12-20T08:09:12;95617.34;;;4.34;99.44
38225;BME280;24025;48.138;11.428;2023-12-20T08:11:47;95625.25;;;4.34;98.89
38225;BME280;24025;48.138;11.428;2023-12-20T08:14:22;95628.84;;;4.29;99.52
38225;BME280;24025;48.138;11.428;2023-12-20T08:16:54;95632.91;;;4.26;99.77
38225;BME280;24025;48.138;11.428;2023-12-20T08:19:25;95629.66;;;4.21;99.03
38225;BME280;24025;48.138;11.428;2023-12-20T08:21:57;95636.16;;;4.23;99.50
38225;BME280;24025;48.138;11.428;2023-12-20T08:24:29;95637.78;;;4.16;99.56
38225;BME280;24025;48.138;11.428;2023-12-20T08:27:01;95633.72;;;4.18;99.71
38225;BME280;24025;48.138;11.428;2023-12-20T08:29:33;95632.47;;;4.24;99.64
38225;BME280;24025;48.138;11.428;2023-12-20T08:32:04;95631.16;;;4.31;98.62
38225;BME280;24025;48.138;11.428;2023-12-20T08:34:36;95632.72;;;4.32;99.28
38225;BME280;24025;48.138;11.428;2023-12-20T08:37:08;95626.97;;;4.30;98.76
38225;BME280;24025;48.138;11.428;2023-12-20T08:39:40;95632.25;;;4.30;98.77
38225;BME280;24025;48.138;11.428;2023-12-20T08:42:15;95631.75;;;4.36;98.69
38225;BME280;24025;48.138;11.428;2023-12-20T08:44:46;95628.47;;;4.39;99.12
38225;BME280;24025;48.138;11.428;2023-12-20T08:47:18;95631.75;;;4.36;98.94
38225;BME280;24025;48.138;11.428;2023-12-20T08:49:52;95638.88;;;4.44;98.13
38225;BME280;24025;48.138;11.428;2023-12-20T08:52:27;95630.03;;;4.40;98.86
38225;BME280;24025;48.138;11.428;2023-12-20T08:55:00;95625.94;;;4.51;98.25
38225;BME280;24025;48.138;11.428;2023-12-20T08:57:32;95630.69;;;4.58;98.32
38225;BME280;24025;48.138;11.428;2023-12-20T09:00:05;95623.88;;;4.57;97.90
38225;BME280;24025;48.138;11.428;2023-12-20T09:02:39;95623.25;;;4.60;97.76
38225;BME280;24025;48.138;11.428;2023-12-20T09:05:11;95619.50;;;4.61;97.41
38225;BME280;24025;48.138;11.428;2023-12-20T09:07:43;95628.91;;;4.71;98.06
38225;BME280;24025;48.138;11.428;2023-12-20T09:10:15;95627.16;;;4.75;97.62
38225;BME280;24025;48.138;11.428;2023-12-20T09:12:50;95632.25;;;4.80;97.20
38225;BME280;24025;48.138;11.428;2023-12-20T09:15:23;95626.13;;;4.67;98.40
38225;BME280;24025;48.138;11.428;2023-12-20T09:17:55;95634.31;;;4.74;98.51
38225;BME280;24025;48.138;11.428;2023-12-20T09:20:27;95627.53;;;4.86;97.34
38225;BME280;24025;48.138;11.428;2023-12-20T09:22:59;95632.50;;;4.66;97.77
38225;BME280;24025;48.138;11.428;2023-12-20T09:25:31;95629.34;;;4.73;97.79
38225;BME280;24025;48.138;11.428;2023-12-20T09:28:02;95627.03;;;4.71;97.50
38225;BME280;24025;48.138;11.428;2023-12-20T09:30:34;95631.41;;;4.67;98.59
38225;BME280;24025;48.138;11.428;2023-12-20T09:33:09;95630.19;;;4.65;97.29
38225;BME280;24025;48.138;11.428;2023-12-20T09:35:41;95624.13;;;4.64;98.22
38225;BME280;24025;48.138;11.428;2023-12-20T09:38:12;95620.00;;;4.54;98.09
38225;BME280;24025;48.138;11.428;2023-12-20T09:40:47;95638.00;;;4.61;98.56
38225;BME280;24025;48.138;11.428;2023-12-20T09:43:20;95641.78;;;4.51;98.76
38225;BME280;24025;48.138;11.428;2023-12-20T09:45:53;95638.56;;;4.67;98.26
38225;BME280;24025;48.138;11.428;2023-12-20T09:48:26;95625.81;;;4.69;98.68
38225;BME280;24025;48.138;11.428;2023-12-20T09:50:59;95627.94;;;4.75;98.76
38225;BME280;24025;48.138;11.428;2023-12-20T09:53:32;95631.59;;;4.83;97.65
38225;BME280;24025;48.138;11.428;2023-12-20T09:56:08;95625.81;;;4.90;97.01
38225;BME280;24025;48.138;11.428;2023-12-20T09:58:39;95620.03;;;4.96;96.42
38225;BME280;24025;48.138;11.428;2023-12-20T10:01:11;95624.38;;;4.92;96.76
38225;BME280;24025;48.138;11.428;2023-12-20T10:03:43;95620.22;;;4.91;96.93
38225;BME280;24025;48.138;11.428;2023-12-20T10:06:16;95613.69;;;5.09;96.74
38225;BME280;24025;48.138;11.428;2023-12-20T10:08:48;95601.50;;;5.17;96.32
38225;BME280;24025;48.138;11.428;2023-12-20T10:11:20;95595.25;;;5.22;96.36
38225;BME280;24025;48.138;11.428;2023-12-20T10:13:51;95602.00;;;5.31;95.91
38225;BME280;24025;48.138;11.428;2023-12-20T10:16:24;95601.91;;;5.40;95.76
38225;BME280;24025;48.138;11.428;2023-12-20T10:18:56;95608.56;;;5.25;96.23
38225;BME280;24025;48.138;11.428;2023-12-20T10:21:28;95600.75;;;5.29;96.33
38225;BME280;24025;48.138;11.428;2023-12-20T10:24:00;95602.44;;;5.33;96.02
38225;BME280;24025;48.138;11.428;2023-12-20T10:26:32;95601.06;;;5.27;97.49
38225;BME280;24025;48.138;11.428;2023-12-20T10:29:04;95603.38;;;5.29;98.00
38225;BME280;24025;48.138;11.428;2023-12-20T10:31:36;95604.81;;;5.26;98.23
38225;BME280;24025;48.138;11.428;2023-12-20T10:34:10;95605.16;;;5.25;98.44
38225;BME280;24025;48.138;11.428;2023-12-20T10:36:42;95599.97;;;5.28;98.34
38225;BME280;24025;48.138;11.428;2023-12-20T10:39:14;95596.78;;;5.23;98.09
38225;BME280;24025;48.138;11.428;2023-12-20T10:41:47;95592.25;;;5.23;98.20
38225;BME280;24025;48.138;11.428;2023-12-20T10:44:19;95587.94;;;5.19;98.89
38225;BME280;24025;48.138;11.428;2023-12-20T10:46:51;95589.63;;;5.23;98.24
38225;BME280;24025;48.138;11.428;2023-12-20T10:49:30;95582.38;;;5.32;98.18
38225;BME280;24025;48.138;11.428;2023-12-20T10:52:03;95585.44;;;5.22;98.29
38225;BME280;24025;48.138;11.428;2023-12-20T10:54:37;95599.44;;;5.23;98.83
38225;BME280;24025;48.138;11.428;2023-12-20T10:57:09;95586.63;;;5.13;98.70
38225;BME280;24025;48.138;11.428;2023-12-20T10:59:41;95587.94;;;5.19;98.92
38225;BME280;24025;48.138;11.428;2023-12-20T11:02:18;95595.25;;;5.22;99.24
38225;BME280;24025;48.138;11.428;2023-12-20T11:05:19;95592.00;;;5.16;98.99
38225;BME280;24025;48.138;11.428;2023-12-20T11:07:59;95576.25;;;5.07;98.98
38225;BME280;24025;48.138;11.428;2023-12-20T11:10:51;95572.31;;;5.14;98.33
38225;BME280;24025;48.138;11.428;2023-12-20T11:13:35;95571.66;;;5.17;97.92
38225;BME280;24025;48.138;11.428;2023-12-20T11:16:08;95577.59;;;5.14;98.51
38225;BME280;24025;48.138;11.428;2023-12-20T11:18:40;95582.22;;;5.17;98.24
38225;BME280;24025;48.138;11.428;2023-12-20T11:21:12;95577.63;;;5.26;98.24
38225;BME280;24025;48.138;11.428;2023-12-20T11:23:45;95578.97;;;5.32;97.76
38225;BME280;24025;48.138;11.428;2023-12-20T11:26:22;95571.81;;;5.45;97.02
38225;BME280;24025;48.138;11.428;2023-12-20T11:28:54;95571.28;;;5.51;96.46
38225;BME280;24025;48.138;11.428;2023-12-20T11:31:46;95565.09;;;5.47;95.99
38225;BME280;24025;48.138;11.428;2023-12-20T11:34:17;95568.13;;;5.58;95.40
38225;BME280;24025;48.138;11.428;2023-12-20T11:36:57;95562.16;;;5.61;95.44
38225;BME280;24025;48.138;11.428;2023-12-20T11:39:28;95564.22;;;5.55;94.44
38225;BME280;24025;48.138;11.428;2023-12-20T11:42:05;95551.47;;;5.57;94.50
38225;BME280;24025;48.138;11.428;2023-12-20T11:44:38;95552.44;;;5.65;94.82
38225;BME280;24025;48.138;11.428;2023-12-20T11:47:12;95543.63;;;5.73;94.33
38225;BME280;24025;48.138;11.428;2023-12-20T11:49:49;95548.94;;;5.85;92.79
38225;BME280;24025;48.138;11.428;2023-12-20T11:52:22;95541.75;;;5.74;92.54
38225;BME280;24025;48.138;11.428;2023-12-20T11:54:54;95543.09;;;5.80;91.94
38225;BME280;24025;48.138;11.428;2023-12-20T11:57:25;95546.28;;;5.73;91.94
38225;BME280;24025;48.138;11.428;2023-12-20T11:59:59;95537.72;;;5.76;91.48
38225;BME280;24025;48.138;11.428;2023-12-20T12:02:30;95528.88;;;5.84;91.63
38225;BME280;24025;48.138;11.428;2023-12-20T12:05:02;95529.09;;;5.79;91.04
38225;BME280;24025;48.138;11.428;2023-12-20T12:07:37;95518.06;;;5.89;90.20
38225;BME280;24025;48.138;11.428;2023-12-20T12:10:09;95530.22;;;5.90;90.08
38225;BME280;24025;48.138;11.428;2023-12-20T12:12:40;95535.38;;;5.87;89.96
38225;BME280;24025;48.138;11.428;2023-12-20T12:15:12;95537.38;;;5.90;89.52
38225;BME280;24025;48.138;11.428;2023-12-20T12:17:52;95527.75;;;5.73;89.03
38225;BME280;24025;48.138;11.428;2023-12-20T12:20:24;95531.19;;;5.74;89.25
38225;BME280;24025;48.138;11.428;2023-12-20T12:23:06;95525.00;;;5.82;89.29
38225;BME280;24025;48.138;11.428;2023-12-20T12:25:38;95532.50;;;5.80;89.83
38225;BME280;24025;48.138;11.428;2023-12-20T12:28:13;95522.94;;;5.75;89.51
38225;BME280;24025;48.138;11.428;2023-12-20T12:30:57;95524.00;;;5.74;89.44
38225;BME280;24025;48.138;11.428;2023-12-20T12:33:29;95523.03;;;5.66;89.94
38225;BME280;24025;48.138;11.428;2023-12-20T12:36:04;95514.66;;;5.64;90.16
38225;BME280;24025;48.138;11.428;2023-12-20T12:38:38;95505.41;;;5.71;90.60
38225;BME280;24025;48.138;11.428;2023-12-20T12:41:13;95508.03;;;5.71;90.63
38225;BME280;24025;48.138;11.428;2023-12-20T12:43:44;95508.72;;;5.67;90.45
38225;BME280;24025;48.138;11.428;2023-12-20T12:46:16;95499.34;;;5.58;91.42
38225;BME280;24025;48.138;11.428;2023-12-20T12:48:48;95502.19;;;5.53;90.26
38225;BME280;24025;48.138;11.428;2023-12-20T12:51:20;95500.22;;;5.62;91.05
38225;BME280;24025;48.138;11.428;2023-12-20T12:53:53;95506.94;;;5.59;89.72
38225;BME280;24025;48.138;11.428;2023-12-20T12:56:24;95514.09;;;5.47;90.35
38225;BME280;24025;48.138;11.428;2023-12-20T12:58:56;95519.25;;;5.31;90.55
38225;BME280;24025;48.138;11.428;2023-12-20T13:01:28;95527.88;;;4.95;91.19
38225;BME280;24025;48.138;11.428;2023-12-20T13:03:59;95522.03;;;5.01;92.06
38225;BME280;24025;48.138;11.428;2023-12-20T13:06:34;95523.72;;;4.73;92.54
38225;BME280;24025;48.138;11.428;2023-12-20T13:09:06;95522.91;;;4.60;93.65
38225;BME280;24025;48.138;11.428;2023-12-20T13:11:40;95526.50;;;4.55;93.70
38225;BME280;24025;48.138;11.428;2023-12-20T13:14:12;95521.97;;;4.56;94.23
38225;BME280;24025;48.138;11.428;2023-12-20T13:16:46;95522.63;;;4.53;95.16
38225;BME280;24025;48.138;11.428;2023-12-20T13:19:18;95533.31;;;4.57;94.69
38225;BME280;24025;48.138;11.428;2023-12-20T13:21:50;95532.56;;;4.35;93.21
38225;BME280;24025;48.138;11.428;2023-12-20T13:24:21;95532.22;;;4.37;92.95
38225;BME280;24025;48.138;11.428;2023-12-20T13:26:53;95533.88;;;4.41;92.54
38225;BME280;24025;48.138;11.428;2023-12-20T13:29:25;95536.41;;;4.38;91.02